»·PEaware :: N642SP KHMT-KCRQ

N642SP :: KHMT-KCRQ

FLIGHT INFORMATION

Flight Status: Arrived
Operator: Privately registered:
United States
More flights under this callsign
Pilot: Wes T. (5776)
Aircraft: CESSNA 172 SKYHAWK
(C172)
More flights by this aircraft type
Origin: KHMT Hemet-Ryan
United States
Destination: KCRQ McClellan-Palomar
United States
More flights between these airports :: More routes between these airports
Route: +PDZ V186 ROBNN V458 OCN
File this flight plan on PilotEdge
Remarks: TEC route ONTP11
Altitude:
(Current/Filed)
7,000ft
Speed:
(Current/Filed)
115kts
Departed: 05-Apr-19 02:10 PM
Arrived: 05-Apr-19 03:01 PM
Distance/Time
Traveled:
39nm/0:50
Distance/Time
To Go:
Arrived

Flight Plot

Page will automatically refresh every two minutes.


Map Options




Map Legend


Flown Route
Filed Route
Departure Airport
Arrival Airport
Navaid (VOR, NDB)
Fix

Horizontal Profiles

Position Reports

Time Latitude Longitude Heading Altitude Ground
Speed
05-Apr-19 13:45 33.731594 -117.019550 230 1515ft 0kts
05-Apr-19 13:46 33.731585 -117.019564 229 1515ft 0kts
05-Apr-19 13:47 33.731582 -117.019568 229 1515ft 0kts
05-Apr-19 13:48 33.731580 -117.019571 229 1515ft 0kts
05-Apr-19 13:49 33.731578 -117.019574 229 1515ft 0kts
05-Apr-19 13:50 33.731576 -117.019576 229 1515ft 0kts
05-Apr-19 13:51 33.731574 -117.019579 229 1515ft 0kts
05-Apr-19 13:52 33.731571 -117.019583 229 1515ft 0kts
05-Apr-19 13:53 33.731569 -117.019586 229 1515ft 0kts
05-Apr-19 13:54 33.731566 -117.019590 229 1515ft 0kts
05-Apr-19 13:55 33.731564 -117.019593 229 1515ft 0kts
05-Apr-19 13:56 33.731562 -117.019596 229 1515ft 0kts
05-Apr-19 13:57 33.731560 -117.019599 229 1515ft 0kts
05-Apr-19 13:58 33.731557 -117.019602 229 1515ft 0kts
05-Apr-19 13:59 33.731554 -117.019645 304 1515ft 2kts
05-Apr-19 14:00 33.732395 -117.019695 332 1515ft 14kts
05-Apr-19 14:01 33.734596 -117.017644 63 1515ft 11kts
05-Apr-19 14:02 33.735015 -117.016281 288 1515ft 0kts
05-Apr-19 14:03 33.735016 -117.016284 288 1515ft 0kts
05-Apr-19 14:04 33.735019 -117.016294 288 1515ft 0kts
05-Apr-19 14:05 33.735022 -117.016304 288 1515ft 0kts
05-Apr-19 14:06 33.735035 -117.016343 296 1515ft 3kts
05-Apr-19 14:07 33.735653 -117.016449 327 1515ft 0kts
05-Apr-19 14:08 33.735981 -117.016865 234 1515ft 0kts
05-Apr-19 14:09 33.731433 -117.026995 241 1749ft 78kts
05-Apr-19 14:10 33.728614 -117.054634 312 2416ft 103kts
05-Apr-19 14:11 33.749002 -117.078968 311 3216ft 103kts
05-Apr-19 14:12 33.761711 -117.100101 296 3816ft 104kts
05-Apr-19 14:13 33.770543 -117.132324 307 4459ft 114kts
05-Apr-19 14:14 33.786485 -117.166662 291 4782ft 120kts
05-Apr-19 14:15 33.800250 -117.203832 290 5080ft 120kts
05-Apr-19 14:16 33.813429 -117.239974 290 5028ft 121kts
05-Apr-19 14:17 33.826699 -117.276411 290 4995ft 116kts
05-Apr-19 14:18 33.839558 -117.311796 290 4999ft 115kts
05-Apr-19 14:19 33.852399 -117.347152 290 5108ft 107kts
05-Apr-19 14:20 33.862613 -117.375372 289 5554ft 110kts
05-Apr-19 14:21 33.875008 -117.409516 289 6056ft 111kts
05-Apr-19 14:22 33.887497 -117.444039 289 6566ft 113kts
05-Apr-19 14:23 33.900165 -117.479127 289 6975ft 120kts
05-Apr-19 14:24 33.914135 -117.517649 289 6997ft 121kts
05-Apr-19 14:25 33.902634 -117.533998 131 7016ft 109kts
05-Apr-19 14:26 33.884471 -117.504127 139 7006ft 110kts
05-Apr-19 14:27 33.860541 -117.481498 148 7004ft 109kts
05-Apr-19 14:28 33.835545 -117.460457 149 7004ft 109kts
05-Apr-19 14:29 33.810554 -117.439465 148 7001ft 110kts
05-Apr-19 14:30 33.785478 -117.418477 148 7000ft 110kts
05-Apr-19 14:31 33.760291 -117.397426 149 7001ft 110kts
05-Apr-19 14:32 33.735054 -117.376345 149 7002ft 110kts
05-Apr-19 14:33 33.709761 -117.355236 149 7002ft 111kts
05-Apr-19 14:34 33.684248 -117.333995 149 7005ft 113kts
05-Apr-19 14:35 33.658214 -117.312281 149 7005ft 114kts
05-Apr-19 14:37 33.632154 -117.290585 149 7004ft 114kts
05-Apr-19 14:38 33.605922 -117.268745 149 7006ft 114kts
05-Apr-19 14:39 33.579734 -117.246963 149 7010ft 114kts
05-Apr-19 14:40 33.553444 -117.225119 149 7002ft 115kts
05-Apr-19 14:41 33.526982 -117.203148 149 7001ft 115kts
05-Apr-19 14:42 33.500580 -117.181234 149 7002ft 115kts
05-Apr-19 14:43 33.473315 -117.161417 170 7002ft 112kts
05-Apr-19 14:44 33.441633 -117.154021 173 7005ft 119kts
05-Apr-19 14:45 33.408811 -117.147019 173 6858ft 119kts
05-Apr-19 14:46 33.378417 -117.140543 174 6341ft 106kts
05-Apr-19 14:47 33.349253 -117.134379 174 5823ft 107kts
05-Apr-19 14:48 33.318832 -117.127652 174 5138ft 113kts
05-Apr-19 14:49 33.289094 -117.120550 172 4482ft 114kts
05-Apr-19 14:50 33.259262 -117.113057 172 3753ft 104kts
05-Apr-19 14:51 33.231419 -117.106140 172 3360ft 93kts
05-Apr-19 14:52 33.205828 -117.099563 172 3301ft 92kts
05-Apr-19 14:53 33.181366 -117.093175 171 3315ft 91kts
05-Apr-19 14:54 33.159489 -117.099664 230 3325ft 88kts
05-Apr-19 14:55 33.152377 -117.131843 256 2767ft 110kts
05-Apr-19 14:55 33.147051 -117.160688 258 2548ft 105kts
05-Apr-19 14:57 33.141681 -117.194986 258 1806ft 81kts
05-Apr-19 14:58 33.137327 -117.222744 257 1303ft 88kts
05-Apr-19 14:58 33.133570 -117.246155 258 873ft 86kts
05-Apr-19 14:59 33.129832 -117.270442 256 411ft 62kts
05-Apr-19 15:00 33.127628 -117.280394 221 334ft 1kts
05-Apr-19 15:02 33.126601 -117.278816 152 334ft 0kts
05-Apr-19 15:02 33.126601 -117.278816 152 334ft 0kts

Navigation Log

Ident Type
Flight plan parsing failed, navigation log unavailable